Terminal Aerodrome Forecast
Issued by NWS Jackson, MS

Home | Current Version | Previous Version | Text Only | Print | Product List | Glossary On
Versions: 1 2 3 4 5 6 7 8 9 10 11 12 13 14 15 16 17
170
FTUS44 KMEG 231734
TAFTUP
TAF
KTUP 231734Z 2318/2418 17009KT P6SM BKN008
     FM231830 17008KT P6SM BKN015
     FM232000 19009KT P6SM BKN030
     FM232200 18008KT P6SM SCT250
     FM240400 18005KT P6SM SCT007
      TEMPO 2410/2414 BKN005
     FM241500 21013G22KT P6SM SCT250=

USA.gov is the U.S. government's official web portal to all federal, state and local government web resources and services.